Historique des mesures à Cassis (13260), France
Quotidien Résumé Juin 30, 2021 Unités:  Métrique    US   Métrique/US
Quotidien Hebdomadaire Mensuel Annuel
  Maximum: Minimum: Moyenne:
Température: 25.6 °C 16.8 °C 21.1 °C
Point de rosée: 14.7 °C 10.5 °C 12.2 °C
Humidité: 69% 45% 58%
Vitesse du vent: 44.6km/h 0km/h 12km/h
Rafales: 44.6km/h - -
Vent- - SW
Pression: 1011.1 hPa 1008.1 hPa -
Précipitations: 0.0 mm    
Historical Graphs
 
 
Mesures pour : Juin 30, 2021
Heure Temperature Point de rosée Pression Vent Vitesse du vent Rafales Humidité Pluie (par heure)
00:11 19.4 °C 11.7 °C 1008.5 hPa NW 9.7 km/h 10.8 km/h 61% 0.0 mm
01:11 19.1 °C 11.4 °C 1008.8 hPa Calm   9 km/h 61% 0.0 mm
02:11 18.7 °C 11.3 °C 1008.6 hPa NW 6.8 km/h 20.5 km/h 62% 0.0 mm
03:11 18.2 °C 10.8 °C 1008.4 hPa NW 10.4 km/h 18.7 km/h 62% 0.0 mm
04:11 17.8 °C 10.6 °C 1008.2 hPa NNW 8.6 km/h 14 km/h 63% 0.0 mm
05:11 17.4 °C 10.5 °C 1008.1 hPa WNW 1.8 km/h 6.5 km/h 64% 0.0 mm
06:11 16.9 °C 10.5 °C 1008.1 hPa West 10.1 km/h 21.2 km/h 66% 0.0 mm
07:11 16.8 °C 10.6 °C 1008.4 hPa WNW 3.2 km/h 14.8 km/h 67% 0.0 mm
08:11 19.6 °C 12.1 °C 1008.8 hPa North 18.4 km/h 26.3 km/h 62% 0.0 mm
09:11 21.8 °C 11.8 °C 1008.6 hPa NNE 3.6 km/h 11.9 km/h 53% 0.0 mm
10:11 21.1 °C 11.7 °C 1008.8 hPa North 8.6 km/h 9.7 km/h 55% 0.0 mm
11:11 23.3 °C 13.7 °C 1009.2 hPa ESE 6.5 km/h 11.9 km/h 55% 0.0 mm
12:11 25.6 °C 14.7 °C 1009.3 hPa ESE 4.3 km/h 6.1 km/h 51% 0.0 mm
13:11 24.9 °C 12.8 °C 1009.1 hPa West 8.3 km/h 31.3 km/h 47% 0.0 mm
14:11 24.4 °C 12.3 °C 1009.2 hPa West 44.6 km/h 44.6 km/h 47% 0.0 mm
15:11 25 °C 12.2 °C 1008.8 hPa West 27 km/h 42.8 km/h 45% 0.0 mm
16:11 25.1 °C 12.3 °C 1008.9 hPa WSW 27.7 km/h 41.4 km/h 45% 0.0 mm
17:11 24.1 °C 12.4 °C 1008.8 hPa WNW 19.8 km/h 37.8 km/h 48% 0.0 mm
18:11 23.5 °C 12.5 °C 1008.8 hPa West 18.4 km/h 37.4 km/h 50% 0.0 mm
19:11 23.1 °C 13.2 °C 1009.4 hPa NW 17.6 km/h 25.9 km/h 54% 0.0 mm
20:11 21.5 °C 12.9 °C 1009.5 hPa West 16.6 km/h 25.6 km/h 58% 0.0 mm
21:11 20.4 °C 13.8 °C 1010.3 hPa WSW 14.8 km/h 16.9 km/h 66% 0.0 mm
22:11 19.9 °C 14.1 °C 1010.8 hPa Calm   3.6 km/h 69% 0.0 mm
23:11 19.1 °C 13 °C 1011.1 hPa NW 2.2 km/h 5 km/h 68% 0.0 mm
Observations météo à CASSIS
WU-History script by Weather Underground - 2 mb